<?xml version="1.0" encoding="UTF-8" standalone="no" ?>
<gpx xmlns="http://www.topografix.com/GPX/1/1" xmlns:xsi="http://www.w3.org/2001/XMLSchema-instance" xsi:schemaLocation="http://www.topografix.com/GPX/1/1 http://www.topografix.com/GPX/1/1/gpx.xsd" version="1.1" creator="VisuGPX - https://www.visugpx.com">
  <metadata>
    <name>fontaine la guyon</name>
    <desc><![CDATA[ballade forestiere champetre,et,rurale[b][/b]]]></desc>
  </metadata>
  <trk>
    <name><![CDATA[fontaine la guyon]]></name>
    <trkseg>
      <trkpt lat="48.47699" lon="1.31604">
        <ele>237</ele>
        <time>2019-01-28T09:55:41.000Z</time>
      </trkpt>
      <trkpt lat="48.477" lon="1.31591">
        <ele>238</ele>
        <time>2019-01-28T09:55:55.000Z</time>
      </trkpt>
      <trkpt lat="48.47703" lon="1.31577">
        <ele>239</ele>
        <time>2019-01-28T09:56:04.000Z</time>
      </trkpt>
      <trkpt lat="48.47704" lon="1.31562">
        <ele>241</ele>
        <time>2019-01-28T09:56:13.000Z</time>
      </trkpt>
      <trkpt lat="48.47706" lon="1.31547">
        <ele>241</ele>
        <time>2019-01-28T09:56:23.000Z</time>
      </trkpt>
      <trkpt lat="48.47708" lon="1.31534">
        <ele>241</ele>
        <time>2019-01-28T09:56:31.000Z</time>
      </trkpt>
      <trkpt lat="48.47711" lon="1.3152">
        <ele>239</ele>
        <time>2019-01-28T09:56:40.000Z</time>
      </trkpt>
      <trkpt lat="48.47715" lon="1.31506">
        <ele>238</ele>
        <time>2019-01-28T09:56:48.000Z</time>
      </trkpt>
      <trkpt lat="48.4772" lon="1.31495">
        <ele>239</ele>
        <time>2019-01-28T09:56:56.000Z</time>
      </trkpt>
      <trkpt lat="48.47723" lon="1.31482">
        <ele>240</ele>
        <time>2019-01-28T09:57:03.000Z</time>
      </trkpt>
      <trkpt lat="48.47726" lon="1.31467">
        <ele>242</ele>
        <time>2019-01-28T09:57:11.000Z</time>
      </trkpt>
      <trkpt lat="48.47729" lon="1.31453">
        <ele>242</ele>
        <time>2019-01-28T09:57:18.000Z</time>
      </trkpt>
      <trkpt lat="48.4773" lon="1.31439">
        <ele>243</ele>
        <time>2019-01-28T09:57:26.000Z</time>
      </trkpt>
      <trkpt lat="48.47733" lon="1.31425">
        <ele>242</ele>
        <time>2019-01-28T09:57:34.000Z</time>
      </trkpt>
      <trkpt lat="48.47736" lon="1.31412">
        <ele>243</ele>
        <time>2019-01-28T09:57:42.000Z</time>
      </trkpt>
      <trkpt lat="48.47738" lon="1.31398">
        <ele>243</ele>
        <time>2019-01-28T09:57:50.000Z</time>
      </trkpt>
      <trkpt lat="48.47739" lon="1.31383">
        <ele>243</ele>
        <time>2019-01-28T09:57:59.000Z</time>
      </trkpt>
      <trkpt lat="48.47749" lon="1.31381">
        <ele>240</ele>
        <time>2019-01-28T09:58:09.000Z</time>
      </trkpt>
      <trkpt lat="48.47759" lon="1.31382">
        <ele>242</ele>
        <time>2019-01-28T09:58:17.000Z</time>
      </trkpt>
      <trkpt lat="48.47768" lon="1.31381">
        <ele>242</ele>
        <time>2019-01-28T09:58:25.000Z</time>
      </trkpt>
      <trkpt lat="48.47778" lon="1.3138">
        <ele>243</ele>
        <time>2019-01-28T09:58:33.000Z</time>
      </trkpt>
      <trkpt lat="48.47788" lon="1.31379">
        <ele>243</ele>
        <time>2019-01-28T09:58:41.000Z</time>
      </trkpt>
      <trkpt lat="48.47797" lon="1.31374">
        <ele>243</ele>
        <time>2019-01-28T09:58:51.000Z</time>
      </trkpt>
      <trkpt lat="48.47807" lon="1.31371">
        <ele>242</ele>
        <time>2019-01-28T09:59:01.000Z</time>
      </trkpt>
      <trkpt lat="48.47816" lon="1.31369">
        <ele>242</ele>
        <time>2019-01-28T09:59:11.000Z</time>
      </trkpt>
      <trkpt lat="48.47826" lon="1.31367">
        <ele>244</ele>
        <time>2019-01-28T09:59:20.000Z</time>
      </trkpt>
      <trkpt lat="48.47835" lon="1.31364">
        <ele>244</ele>
        <time>2019-01-28T09:59:31.000Z</time>
      </trkpt>
      <trkpt lat="48.47845" lon="1.31366">
        <ele>245</ele>
        <time>2019-01-28T09:59:40.000Z</time>
      </trkpt>
      <trkpt lat="48.47854" lon="1.31363">
        <ele>245</ele>
        <time>2019-01-28T09:59:50.000Z</time>
      </trkpt>
      <trkpt lat="48.47863" lon="1.31362">
        <ele>246</ele>
        <time>2019-01-28T10:00:00.000Z</time>
      </trkpt>
      <trkpt lat="48.47873" lon="1.31359">
        <ele>246</ele>
        <time>2019-01-28T10:00:11.000Z</time>
      </trkpt>
      <trkpt lat="48.47883" lon="1.31357">
        <ele>248</ele>
        <time>2019-01-28T10:00:23.000Z</time>
      </trkpt>
      <trkpt lat="48.47892" lon="1.31353">
        <ele>249</ele>
        <time>2019-01-28T10:00:34.000Z</time>
      </trkpt>
      <trkpt lat="48.47901" lon="1.31352">
        <ele>250</ele>
        <time>2019-01-28T10:00:45.000Z</time>
      </trkpt>
      <trkpt lat="48.4791" lon="1.31355">
        <ele>252</ele>
        <time>2019-01-28T10:00:57.000Z</time>
      </trkpt>
      <trkpt lat="48.47919" lon="1.31363">
        <ele>257</ele>
        <time>2019-01-28T10:01:18.000Z</time>
      </trkpt>
      <trkpt lat="48.47927" lon="1.31357">
        <ele>260</ele>
        <time>2019-01-28T10:01:27.000Z</time>
      </trkpt>
      <trkpt lat="48.47937" lon="1.3135">
        <ele>262</ele>
        <time>2019-01-28T10:01:40.000Z</time>
      </trkpt>
      <trkpt lat="48.47946" lon="1.31347">
        <ele>264</ele>
        <time>2019-01-28T10:01:47.000Z</time>
      </trkpt>
      <trkpt lat="48.47956" lon="1.31347">
        <ele>261</ele>
        <time>2019-01-28T10:01:58.000Z</time>
      </trkpt>
      <trkpt lat="48.47966" lon="1.31347">
        <ele>264</ele>
        <time>2019-01-28T10:02:08.000Z</time>
      </trkpt>
      <trkpt lat="48.47975" lon="1.31346">
        <ele>266</ele>
        <time>2019-01-28T10:02:17.000Z</time>
      </trkpt>
      <trkpt lat="48.47984" lon="1.31346">
        <ele>268</ele>
        <time>2019-01-28T10:02:26.000Z</time>
      </trkpt>
      <trkpt lat="48.47994" lon="1.31344">
        <ele>269</ele>
        <time>2019-01-28T10:02:35.000Z</time>
      </trkpt>
      <trkpt lat="48.48004" lon="1.31342">
        <ele>272</ele>
        <time>2019-01-28T10:02:44.000Z</time>
      </trkpt>
      <trkpt lat="48.48015" lon="1.3134">
        <ele>276</ele>
        <time>2019-01-28T10:02:55.000Z</time>
      </trkpt>
      <trkpt lat="48.48024" lon="1.31342">
        <ele>273</ele>
        <time>2019-01-28T10:03:03.000Z</time>
      </trkpt>
      <trkpt lat="48.48034" lon="1.31338">
        <ele>276</ele>
        <time>2019-01-28T10:03:14.000Z</time>
      </trkpt>
      <trkpt lat="48.48043" lon="1.31337">
        <ele>276</ele>
        <time>2019-01-28T10:03:27.000Z</time>
      </trkpt>
      <trkpt lat="48.48054" lon="1.31336">
        <ele>274</ele>
        <time>2019-01-28T10:03:35.000Z</time>
      </trkpt>
      <trkpt lat="48.48064" lon="1.31336">
        <ele>276</ele>
        <time>2019-01-28T10:03:47.000Z</time>
      </trkpt>
      <trkpt lat="48.48073" lon="1.31335">
        <ele>278</ele>
        <time>2019-01-28T10:03:56.000Z</time>
      </trkpt>
      <trkpt lat="48.48084" lon="1.31332">
        <ele>276</ele>
        <time>2019-01-28T10:04:08.000Z</time>
      </trkpt>
      <trkpt lat="48.48093" lon="1.31329">
        <ele>276</ele>
        <time>2019-01-28T10:04:17.000Z</time>
      </trkpt>
      <trkpt lat="48.48103" lon="1.31324">
        <ele>276</ele>
        <time>2019-01-28T10:04:24.000Z</time>
      </trkpt>
      <trkpt lat="48.48113" lon="1.3132">
        <ele>277</ele>
        <time>2019-01-28T10:04:31.000Z</time>
      </trkpt>
      <trkpt lat="48.48122" lon="1.31315">
        <ele>280</ele>
        <time>2019-01-28T10:04:40.000Z</time>
      </trkpt>
      <trkpt lat="48.4813" lon="1.31309">
        <ele>282</ele>
        <time>2019-01-28T10:04:50.000Z</time>
      </trkpt>
      <trkpt lat="48.4814" lon="1.31304">
        <ele>282</ele>
        <time>2019-01-28T10:04:58.000Z</time>
      </trkpt>
      <trkpt lat="48.48149" lon="1.31297">
        <ele>281</ele>
        <time>2019-01-28T10:05:09.000Z</time>
      </trkpt>
      <trkpt lat="48.48159" lon="1.31295">
        <ele>281</ele>
        <time>2019-01-28T10:05:21.000Z</time>
      </trkpt>
      <trkpt lat="48.48167" lon="1.31288">
        <ele>282</ele>
        <time>2019-01-28T10:05:30.000Z</time>
      </trkpt>
      <trkpt lat="48.48177" lon="1.31285">
        <ele>282</ele>
        <time>2019-01-28T10:05:37.000Z</time>
      </trkpt>
      <trkpt lat="48.48185" lon="1.31278">
        <ele>283</ele>
        <time>2019-01-28T10:05:44.000Z</time>
      </trkpt>
      <trkpt lat="48.48197" lon="1.31273">
        <ele>282</ele>
        <time>2019-01-28T10:05:54.000Z</time>
      </trkpt>
      <trkpt lat="48.48205" lon="1.31265">
        <ele>282</ele>
        <time>2019-01-28T10:06:01.000Z</time>
      </trkpt>
      <trkpt lat="48.48212" lon="1.31256">
        <ele>281</ele>
        <time>2019-01-28T10:06:10.000Z</time>
      </trkpt>
      <trkpt lat="48.4822" lon="1.31249">
        <ele>282</ele>
        <time>2019-01-28T10:06:17.000Z</time>
      </trkpt>
      <trkpt lat="48.4823" lon="1.31243">
        <ele>280</ele>
        <time>2019-01-28T10:06:27.000Z</time>
      </trkpt>
      <trkpt lat="48.4824" lon="1.31237">
        <ele>280</ele>
        <time>2019-01-28T10:06:37.000Z</time>
      </trkpt>
      <trkpt lat="48.48249" lon="1.3123">
        <ele>280</ele>
        <time>2019-01-28T10:06:48.000Z</time>
      </trkpt>
      <trkpt lat="48.48257" lon="1.31224">
        <ele>279</ele>
        <time>2019-01-28T10:06:56.000Z</time>
      </trkpt>
      <trkpt lat="48.48267" lon="1.31217">
        <ele>280</ele>
        <time>2019-01-28T10:07:05.000Z</time>
      </trkpt>
      <trkpt lat="48.48276" lon="1.31211">
        <ele>282</ele>
        <time>2019-01-28T10:07:13.000Z</time>
      </trkpt>
      <trkpt lat="48.48285" lon="1.31206">
        <ele>281</ele>
        <time>2019-01-28T10:07:24.000Z</time>
      </trkpt>
      <trkpt lat="48.48294" lon="1.31201">
        <ele>282</ele>
        <time>2019-01-28T10:07:33.000Z</time>
      </trkpt>
      <trkpt lat="48.48304" lon="1.31192">
        <ele>283</ele>
        <time>2019-01-28T10:07:42.000Z</time>
      </trkpt>
      <trkpt lat="48.48311" lon="1.31182">
        <ele>283</ele>
        <time>2019-01-28T10:07:51.000Z</time>
      </trkpt>
      <trkpt lat="48.48314" lon="1.31169">
        <ele>284</ele>
        <time>2019-01-28T10:07:58.000Z</time>
      </trkpt>
      <trkpt lat="48.4831" lon="1.31155">
        <ele>284</ele>
        <time>2019-01-28T10:08:09.000Z</time>
      </trkpt>
      <trkpt lat="48.4831" lon="1.31138">
        <ele>284</ele>
        <time>2019-01-28T10:08:20.000Z</time>
      </trkpt>
      <trkpt lat="48.48308" lon="1.31125">
        <ele>284</ele>
        <time>2019-01-28T10:08:28.000Z</time>
      </trkpt>
      <trkpt lat="48.48306" lon="1.31112">
        <ele>284</ele>
        <time>2019-01-28T10:08:35.000Z</time>
      </trkpt>
      <trkpt lat="48.48303" lon="1.31098">
        <ele>284</ele>
        <time>2019-01-28T10:08:45.000Z</time>
      </trkpt>
      <trkpt lat="48.483" lon="1.31084">
        <ele>283</ele>
        <time>2019-01-28T10:08:55.000Z</time>
      </trkpt>
      <trkpt lat="48.48298" lon="1.3107">
        <ele>283</ele>
        <time>2019-01-28T10:09:03.000Z</time>
      </trkpt>
      <trkpt lat="48.48296" lon="1.31053">
        <ele>286</ele>
        <time>2019-01-28T10:09:15.000Z</time>
      </trkpt>
      <trkpt lat="48.48297" lon="1.31039">
        <ele>286</ele>
        <time>2019-01-28T10:09:23.000Z</time>
      </trkpt>
      <trkpt lat="48.48297" lon="1.31024">
        <ele>284</ele>
        <time>2019-01-28T10:09:31.000Z</time>
      </trkpt>
      <trkpt lat="48.48298" lon="1.31009">
        <ele>283</ele>
        <time>2019-01-28T10:09:39.000Z</time>
      </trkpt>
      <trkpt lat="48.483" lon="1.30996">
        <ele>284</ele>
        <time>2019-01-28T10:09:48.000Z</time>
      </trkpt>
      <trkpt lat="48.48306" lon="1.30985">
        <ele>286</ele>
        <time>2019-01-28T10:09:58.000Z</time>
      </trkpt>
      <trkpt lat="48.48314" lon="1.30975">
        <ele>285</ele>
        <time>2019-01-28T10:10:06.000Z</time>
      </trkpt>
      <trkpt lat="48.48321" lon="1.30967">
        <ele>287</ele>
        <time>2019-01-28T10:10:16.000Z</time>
      </trkpt>
      <trkpt lat="48.48329" lon="1.30958">
        <ele>288</ele>
        <time>2019-01-28T10:10:24.000Z</time>
      </trkpt>
      <trkpt lat="48.48337" lon="1.30952">
        <ele>291</ele>
        <time>2019-01-28T10:10:32.000Z</time>
      </trkpt>
      <trkpt lat="48.48345" lon="1.30942">
        <ele>291</ele>
        <time>2019-01-28T10:10:42.000Z</time>
      </trkpt>
      <trkpt lat="48.48352" lon="1.30934">
        <ele>291</ele>
        <time>2019-01-28T10:10:52.000Z</time>
      </trkpt>
      <trkpt lat="48.48359" lon="1.30924">
        <ele>290</ele>
        <time>2019-01-28T10:11:00.000Z</time>
      </trkpt>
      <trkpt lat="48.48367" lon="1.30915">
        <ele>290</ele>
        <time>2019-01-28T10:11:09.000Z</time>
      </trkpt>
      <trkpt lat="48.48377" lon="1.30907">
        <ele>290</ele>
        <time>2019-01-28T10:11:19.000Z</time>
      </trkpt>
      <trkpt lat="48.48383" lon="1.30897">
        <ele>291</ele>
        <time>2019-01-28T10:11:27.000Z</time>
      </trkpt>
      <trkpt lat="48.4839" lon="1.30887">
        <ele>292</ele>
        <time>2019-01-28T10:11:37.000Z</time>
      </trkpt>
      <trkpt lat="48.48394" lon="1.30873">
        <ele>294</ele>
        <time>2019-01-28T10:11:46.000Z</time>
      </trkpt>
      <trkpt lat="48.48398" lon="1.30861">
        <ele>293</ele>
        <time>2019-01-28T10:11:54.000Z</time>
      </trkpt>
      <trkpt lat="48.48399" lon="1.30847">
        <ele>292</ele>
        <time>2019-01-28T10:12:03.000Z</time>
      </trkpt>
      <trkpt lat="48.48397" lon="1.30833">
        <ele>291</ele>
        <time>2019-01-28T10:12:11.000Z</time>
      </trkpt>
      <trkpt lat="48.48399" lon="1.30818">
        <ele>290</ele>
        <time>2019-01-28T10:12:21.000Z</time>
      </trkpt>
      <trkpt lat="48.48401" lon="1.30803">
        <ele>289</ele>
        <time>2019-01-28T10:12:32.000Z</time>
      </trkpt>
      <trkpt lat="48.48405" lon="1.30788">
        <ele>287</ele>
        <time>2019-01-28T10:12:42.000Z</time>
      </trkpt>
      <trkpt lat="48.48403" lon="1.30775">
        <ele>286</ele>
        <time>2019-01-28T10:12:52.000Z</time>
      </trkpt>
      <trkpt lat="48.48399" lon="1.30759">
        <ele>287</ele>
        <time>2019-01-28T10:13:00.000Z</time>
      </trkpt>
      <trkpt lat="48.48395" lon="1.30745">
        <ele>291</ele>
        <time>2019-01-28T10:13:11.000Z</time>
      </trkpt>
      <trkpt lat="48.48391" lon="1.30731">
        <ele>291</ele>
        <time>2019-01-28T10:13:20.000Z</time>
      </trkpt>
      <trkpt lat="48.48389" lon="1.30717">
        <ele>292</ele>
        <time>2019-01-28T10:13:27.000Z</time>
      </trkpt>
      <trkpt lat="48.48384" lon="1.30705">
        <ele>292</ele>
        <time>2019-01-28T10:13:35.000Z</time>
      </trkpt>
      <trkpt lat="48.4838" lon="1.30692">
        <ele>292</ele>
        <time>2019-01-28T10:13:44.000Z</time>
      </trkpt>
      <trkpt lat="48.48377" lon="1.30676">
        <ele>292</ele>
        <time>2019-01-28T10:13:57.000Z</time>
      </trkpt>
      <trkpt lat="48.48371" lon="1.30665">
        <ele>290</ele>
        <time>2019-01-28T10:14:04.000Z</time>
      </trkpt>
      <trkpt lat="48.48364" lon="1.30654">
        <ele>291</ele>
        <time>2019-01-28T10:14:13.000Z</time>
      </trkpt>
      <trkpt lat="48.48359" lon="1.30642">
        <ele>292</ele>
        <time>2019-01-28T10:14:22.000Z</time>
      </trkpt>
      <trkpt lat="48.48354" lon="1.3063">
        <ele>289</ele>
        <time>2019-01-28T10:14:33.000Z</time>
      </trkpt>
      <trkpt lat="48.48346" lon="1.30621">
        <ele>289</ele>
        <time>2019-01-28T10:14:42.000Z</time>
      </trkpt>
      <trkpt lat="48.48338" lon="1.3061">
        <ele>289</ele>
        <time>2019-01-28T10:14:52.000Z</time>
      </trkpt>
      <trkpt lat="48.48331" lon="1.30602">
        <ele>287</ele>
        <time>2019-01-28T10:15:00.000Z</time>
      </trkpt>
      <trkpt lat="48.48326" lon="1.3059">
        <ele>287</ele>
        <time>2019-01-28T10:15:11.000Z</time>
      </trkpt>
      <trkpt lat="48.48318" lon="1.30575">
        <ele>286</ele>
        <time>2019-01-28T10:15:24.000Z</time>
      </trkpt>
      <trkpt lat="48.48309" lon="1.30565">
        <ele>284</ele>
        <time>2019-01-28T10:15:31.000Z</time>
      </trkpt>
      <trkpt lat="48.48303" lon="1.30554">
        <ele>282</ele>
        <time>2019-01-28T10:15:38.000Z</time>
      </trkpt>
      <trkpt lat="48.48296" lon="1.30545">
        <ele>285</ele>
        <time>2019-01-28T10:15:45.000Z</time>
      </trkpt>
      <trkpt lat="48.48288" lon="1.30536">
        <ele>282</ele>
        <time>2019-01-28T10:15:53.000Z</time>
      </trkpt>
      <trkpt lat="48.4828" lon="1.30526">
        <ele>281</ele>
        <time>2019-01-28T10:16:02.000Z</time>
      </trkpt>
      <trkpt lat="48.48274" lon="1.30516">
        <ele>283</ele>
        <time>2019-01-28T10:16:10.000Z</time>
      </trkpt>
      <trkpt lat="48.48267" lon="1.30506">
        <ele>281</ele>
        <time>2019-01-28T10:16:19.000Z</time>
      </trkpt>
      <trkpt lat="48.48261" lon="1.30496">
        <ele>280</ele>
        <time>2019-01-28T10:16:27.000Z</time>
      </trkpt>
      <trkpt lat="48.48255" lon="1.30484">
        <ele>278</ele>
        <time>2019-01-28T10:16:37.000Z</time>
      </trkpt>
      <trkpt lat="48.48249" lon="1.30473">
        <ele>278</ele>
        <time>2019-01-28T10:16:46.000Z</time>
      </trkpt>
      <trkpt lat="48.48245" lon="1.3046">
        <ele>278</ele>
        <time>2019-01-28T10:16:53.000Z</time>
      </trkpt>
      <trkpt lat="48.48241" lon="1.30446">
        <ele>277</ele>
        <time>2019-01-28T10:17:01.000Z</time>
      </trkpt>
      <trkpt lat="48.48236" lon="1.30434">
        <ele>279</ele>
        <time>2019-01-28T10:17:07.000Z</time>
      </trkpt>
      <trkpt lat="48.48241" lon="1.30422">
        <ele>279</ele>
        <time>2019-01-28T10:17:19.000Z</time>
      </trkpt>
      <trkpt lat="48.48248" lon="1.30413">
        <ele>277</ele>
        <time>2019-01-28T10:17:28.000Z</time>
      </trkpt>
      <trkpt lat="48.48249" lon="1.30398">
        <ele>276</ele>
        <time>2019-01-28T10:17:38.000Z</time>
      </trkpt>
      <trkpt lat="48.48252" lon="1.30384">
        <ele>275</ele>
        <time>2019-01-28T10:17:48.000Z</time>
      </trkpt>
      <trkpt lat="48.48257" lon="1.30369">
        <ele>275</ele>
        <time>2019-01-28T10:18:00.000Z</time>
      </trkpt>
      <trkpt lat="48.48259" lon="1.30352">
        <ele>274</ele>
        <time>2019-01-28T10:18:12.000Z</time>
      </trkpt>
      <trkpt lat="48.48262" lon="1.30338">
        <ele>276</ele>
        <time>2019-01-28T10:18:19.000Z</time>
      </trkpt>
      <trkpt lat="48.48266" lon="1.30326">
        <ele>274</ele>
        <time>2019-01-28T10:18:28.000Z</time>
      </trkpt>
      <trkpt lat="48.48268" lon="1.30313">
        <ele>273</ele>
        <time>2019-01-28T10:18:37.000Z</time>
      </trkpt>
      <trkpt lat="48.48272" lon="1.30299">
        <ele>272</ele>
        <time>2019-01-28T10:18:45.000Z</time>
      </trkpt>
      <trkpt lat="48.48274" lon="1.30284">
        <ele>272</ele>
        <time>2019-01-28T10:18:55.000Z</time>
      </trkpt>
      <trkpt lat="48.48276" lon="1.30271">
        <ele>267</ele>
        <time>2019-01-28T10:19:07.000Z</time>
      </trkpt>
      <trkpt lat="48.48278" lon="1.30257">
        <ele>267</ele>
        <time>2019-01-28T10:19:16.000Z</time>
      </trkpt>
      <trkpt lat="48.48282" lon="1.30245">
        <ele>268</ele>
        <time>2019-01-28T10:19:23.000Z</time>
      </trkpt>
      <trkpt lat="48.48286" lon="1.30231">
        <ele>267</ele>
        <time>2019-01-28T10:19:33.000Z</time>
      </trkpt>
      <trkpt lat="48.4829" lon="1.30217">
        <ele>269</ele>
        <time>2019-01-28T10:19:43.000Z</time>
      </trkpt>
      <trkpt lat="48.48294" lon="1.30204">
        <ele>268</ele>
        <time>2019-01-28T10:19:52.000Z</time>
      </trkpt>
      <trkpt lat="48.48295" lon="1.3019">
        <ele>266</ele>
        <time>2019-01-28T10:20:01.000Z</time>
      </trkpt>
      <trkpt lat="48.48299" lon="1.30178">
        <ele>267</ele>
        <time>2019-01-28T10:20:08.000Z</time>
      </trkpt>
      <trkpt lat="48.48303" lon="1.30165">
        <ele>266</ele>
        <time>2019-01-28T10:20:17.000Z</time>
      </trkpt>
      <trkpt lat="48.48306" lon="1.30151">
        <ele>266</ele>
        <time>2019-01-28T10:20:25.000Z</time>
      </trkpt>
      <trkpt lat="48.48309" lon="1.30136">
        <ele>263</ele>
        <time>2019-01-28T10:20:37.000Z</time>
      </trkpt>
      <trkpt lat="48.48311" lon="1.30122">
        <ele>264</ele>
        <time>2019-01-28T10:20:46.000Z</time>
      </trkpt>
      <trkpt lat="48.48314" lon="1.30109">
        <ele>264</ele>
        <time>2019-01-28T10:20:57.000Z</time>
      </trkpt>
      <trkpt lat="48.48317" lon="1.30094">
        <ele>267</ele>
        <time>2019-01-28T10:21:03.000Z</time>
      </trkpt>
      <trkpt lat="48.48317" lon="1.3008">
        <ele>267</ele>
        <time>2019-01-28T10:21:12.000Z</time>
      </trkpt>
      <trkpt lat="48.48322" lon="1.30068">
        <ele>269</ele>
        <time>2019-01-28T10:21:22.000Z</time>
      </trkpt>
      <trkpt lat="48.48327" lon="1.30056">
        <ele>268</ele>
        <time>2019-01-28T10:21:46.000Z</time>
      </trkpt>
      <trkpt lat="48.48327" lon="1.30042">
        <ele>267</ele>
        <time>2019-01-28T10:21:55.000Z</time>
      </trkpt>
      <trkpt lat="48.48331" lon="1.30026">
        <ele>265</ele>
        <time>2019-01-28T10:22:05.000Z</time>
      </trkpt>
      <trkpt lat="48.48334" lon="1.30012">
        <ele>266</ele>
        <time>2019-01-28T10:22:14.000Z</time>
      </trkpt>
      <trkpt lat="48.48336" lon="1.29998">
        <ele>266</ele>
        <time>2019-01-28T10:22:23.000Z</time>
      </trkpt>
      <trkpt lat="48.4834" lon="1.29984">
        <ele>266</ele>
        <time>2019-01-28T10:22:32.000Z</time>
      </trkpt>
      <trkpt lat="48.48345" lon="1.29973">
        <ele>267</ele>
        <time>2019-01-28T10:22:40.000Z</time>
      </trkpt>
      <trkpt lat="48.48346" lon="1.29959">
        <ele>266</ele>
        <time>2019-01-28T10:22:49.000Z</time>
      </trkpt>
      <trkpt lat="48.48349" lon="1.29946">
        <ele>266</ele>
        <time>2019-01-28T10:22:59.000Z</time>
      </trkpt>
      <trkpt lat="48.48352" lon="1.29929">
        <ele>267</ele>
        <time>2019-01-28T10:23:11.000Z</time>
      </trkpt>
      <trkpt lat="48.48355" lon="1.29916">
        <ele>266</ele>
        <time>2019-01-28T10:23:19.000Z</time>
      </trkpt>
      <trkpt lat="48.48358" lon="1.29903">
        <ele>268</ele>
        <time>2019-01-28T10:23:27.000Z</time>
      </trkpt>
      <trkpt lat="48.48363" lon="1.29892">
        <ele>265</ele>
        <time>2019-01-28T10:23:36.000Z</time>
      </trkpt>
      <trkpt lat="48.48367" lon="1.29879">
        <ele>266</ele>
        <time>2019-01-28T10:23:45.000Z</time>
      </trkpt>
      <trkpt lat="48.4837" lon="1.29866">
        <ele>266</ele>
        <time>2019-01-28T10:23:54.000Z</time>
      </trkpt>
      <trkpt lat="48.48372" lon="1.29852">
        <ele>277</ele>
        <time>2019-01-28T10:24:04.000Z</time>
      </trkpt>
      <trkpt lat="48.48377" lon="1.29838">
        <ele>281</ele>
        <time>2019-01-28T10:24:11.000Z</time>
      </trkpt>
      <trkpt lat="48.48378" lon="1.29824">
        <ele>276</ele>
        <time>2019-01-28T10:24:22.000Z</time>
      </trkpt>
      <trkpt lat="48.48381" lon="1.29811">
        <ele>269</ele>
        <time>2019-01-28T10:24:33.000Z</time>
      </trkpt>
      <trkpt lat="48.48384" lon="1.29798">
        <ele>269</ele>
        <time>2019-01-28T10:24:44.000Z</time>
      </trkpt>
      <trkpt lat="48.48386" lon="1.29784">
        <ele>267</ele>
        <time>2019-01-28T10:24:53.000Z</time>
      </trkpt>
      <trkpt lat="48.48388" lon="1.29769">
        <ele>266</ele>
        <time>2019-01-28T10:25:03.000Z</time>
      </trkpt>
      <trkpt lat="48.48388" lon="1.29753">
        <ele>262</ele>
        <time>2019-01-28T10:25:12.000Z</time>
      </trkpt>
      <trkpt lat="48.48392" lon="1.29737">
        <ele>263</ele>
        <time>2019-01-28T10:25:24.000Z</time>
      </trkpt>
      <trkpt lat="48.48394" lon="1.29724">
        <ele>263</ele>
        <time>2019-01-28T10:25:34.000Z</time>
      </trkpt>
      <trkpt lat="48.48403" lon="1.29728">
        <ele>257</ele>
        <time>2019-01-28T10:26:03.000Z</time>
      </trkpt>
      <trkpt lat="48.4841" lon="1.29737">
        <ele>260</ele>
        <time>2019-01-28T10:26:14.000Z</time>
      </trkpt>
      <trkpt lat="48.48414" lon="1.29751">
        <ele>259</ele>
        <time>2019-01-28T10:26:26.000Z</time>
      </trkpt>
      <trkpt lat="48.48422" lon="1.29762">
        <ele>264</ele>
        <time>2019-01-28T10:26:45.000Z</time>
      </trkpt>
      <trkpt lat="48.4843" lon="1.29771">
        <ele>264</ele>
        <time>2019-01-28T10:26:58.000Z</time>
      </trkpt>
      <trkpt lat="48.48435" lon="1.29782">
        <ele>265</ele>
        <time>2019-01-28T10:27:11.000Z</time>
      </trkpt>
      <trkpt lat="48.48442" lon="1.29791">
        <ele>267</ele>
        <time>2019-01-28T10:27:23.000Z</time>
      </trkpt>
      <trkpt lat="48.48451" lon="1.29797">
        <ele>267</ele>
        <time>2019-01-28T10:27:35.000Z</time>
      </trkpt>
      <trkpt lat="48.48458" lon="1.29805">
        <ele>268</ele>
        <time>2019-01-28T10:27:48.000Z</time>
      </trkpt>
      <trkpt lat="48.48465" lon="1.29813">
        <ele>271</ele>
        <time>2019-01-28T10:28:00.000Z</time>
      </trkpt>
      <trkpt lat="48.48474" lon="1.2982">
        <ele>270</ele>
        <time>2019-01-28T10:28:10.000Z</time>
      </trkpt>
      <trkpt lat="48.48483" lon="1.29825">
        <ele>272</ele>
        <time>2019-01-28T10:28:26.000Z</time>
      </trkpt>
      <trkpt lat="48.48492" lon="1.29831">
        <ele>274</ele>
        <time>2019-01-28T10:28:41.000Z</time>
      </trkpt>
      <trkpt lat="48.485" lon="1.29838">
        <ele>274</ele>
        <time>2019-01-28T10:29:16.000Z</time>
      </trkpt>
      <trkpt lat="48.48504" lon="1.29851">
        <ele>278</ele>
        <time>2019-01-28T10:29:27.000Z</time>
      </trkpt>
      <trkpt lat="48.48511" lon="1.29862">
        <ele>278</ele>
        <time>2019-01-28T10:29:38.000Z</time>
      </trkpt>
      <trkpt lat="48.48512" lon="1.29877">
        <ele>277</ele>
        <time>2019-01-28T10:29:49.000Z</time>
      </trkpt>
      <trkpt lat="48.48518" lon="1.2989">
        <ele>280</ele>
        <time>2019-01-28T10:30:03.000Z</time>
      </trkpt>
      <trkpt lat="48.48526" lon="1.29899">
        <ele>280</ele>
        <time>2019-01-28T10:30:14.000Z</time>
      </trkpt>
      <trkpt lat="48.48533" lon="1.29909">
        <ele>279</ele>
        <time>2019-01-28T10:30:22.000Z</time>
      </trkpt>
      <trkpt lat="48.48529" lon="1.29922">
        <ele>282</ele>
        <time>2019-01-28T10:30:41.000Z</time>
      </trkpt>
      <trkpt lat="48.48521" lon="1.29932">
        <ele>283</ele>
        <time>2019-01-28T10:30:52.000Z</time>
      </trkpt>
      <trkpt lat="48.48515" lon="1.29941">
        <ele>282</ele>
        <time>2019-01-28T10:31:00.000Z</time>
      </trkpt>
      <trkpt lat="48.48509" lon="1.29952">
        <ele>283</ele>
        <time>2019-01-28T10:31:11.000Z</time>
      </trkpt>
      <trkpt lat="48.48503" lon="1.29964">
        <ele>283</ele>
        <time>2019-01-28T10:31:19.000Z</time>
      </trkpt>
      <trkpt lat="48.48497" lon="1.29975">
        <ele>284</ele>
        <time>2019-01-28T10:31:30.000Z</time>
      </trkpt>
      <trkpt lat="48.4849" lon="1.29984">
        <ele>281</ele>
        <time>2019-01-28T10:31:39.000Z</time>
      </trkpt>
      <trkpt lat="48.48483" lon="1.29996">
        <ele>280</ele>
        <time>2019-01-28T10:31:51.000Z</time>
      </trkpt>
      <trkpt lat="48.4848" lon="1.30009">
        <ele>292</ele>
        <time>2019-01-28T10:31:58.000Z</time>
      </trkpt>
      <trkpt lat="48.48473" lon="1.30018">
        <ele>289</ele>
        <time>2019-01-28T10:32:06.000Z</time>
      </trkpt>
      <trkpt lat="48.48467" lon="1.30028">
        <ele>284</ele>
        <time>2019-01-28T10:32:17.000Z</time>
      </trkpt>
      <trkpt lat="48.48459" lon="1.3004">
        <ele>281</ele>
        <time>2019-01-28T10:32:28.000Z</time>
      </trkpt>
      <trkpt lat="48.48454" lon="1.3005">
        <ele>282</ele>
        <time>2019-01-28T10:32:36.000Z</time>
      </trkpt>
      <trkpt lat="48.48449" lon="1.30062">
        <ele>283</ele>
        <time>2019-01-28T10:32:46.000Z</time>
      </trkpt>
      <trkpt lat="48.48442" lon="1.30073">
        <ele>280</ele>
        <time>2019-01-28T10:32:55.000Z</time>
      </trkpt>
      <trkpt lat="48.48437" lon="1.30086">
        <ele>280</ele>
        <time>2019-01-28T10:33:03.000Z</time>
      </trkpt>
      <trkpt lat="48.48429" lon="1.30099">
        <ele>280</ele>
        <time>2019-01-28T10:33:15.000Z</time>
      </trkpt>
      <trkpt lat="48.48422" lon="1.30108">
        <ele>280</ele>
        <time>2019-01-28T10:33:25.000Z</time>
      </trkpt>
      <trkpt lat="48.48415" lon="1.30121">
        <ele>280</ele>
        <time>2019-01-28T10:33:35.000Z</time>
      </trkpt>
      <trkpt lat="48.4841" lon="1.30132">
        <ele>280</ele>
        <time>2019-01-28T10:33:46.000Z</time>
      </trkpt>
      <trkpt lat="48.48404" lon="1.30144">
        <ele>279</ele>
        <time>2019-01-28T10:33:56.000Z</time>
      </trkpt>
      <trkpt lat="48.48398" lon="1.30156">
        <ele>278</ele>
        <time>2019-01-28T10:34:09.000Z</time>
      </trkpt>
      <trkpt lat="48.48392" lon="1.30167">
        <ele>279</ele>
        <time>2019-01-28T10:34:17.000Z</time>
      </trkpt>
      <trkpt lat="48.48386" lon="1.3018">
        <ele>277</ele>
        <time>2019-01-28T10:34:28.000Z</time>
      </trkpt>
      <trkpt lat="48.48379" lon="1.30191">
        <ele>278</ele>
        <time>2019-01-28T10:34:35.000Z</time>
      </trkpt>
      <trkpt lat="48.48372" lon="1.302">
        <ele>277</ele>
        <time>2019-01-28T10:34:42.000Z</time>
      </trkpt>
      <trkpt lat="48.48365" lon="1.30211">
        <ele>279</ele>
        <time>2019-01-28T10:34:51.000Z</time>
      </trkpt>
      <trkpt lat="48.4836" lon="1.30223">
        <ele>277</ele>
        <time>2019-01-28T10:35:00.000Z</time>
      </trkpt>
      <trkpt lat="48.48353" lon="1.30235">
        <ele>278</ele>
        <time>2019-01-28T10:35:12.000Z</time>
      </trkpt>
      <trkpt lat="48.48347" lon="1.30246">
        <ele>278</ele>
        <time>2019-01-28T10:35:20.000Z</time>
      </trkpt>
      <trkpt lat="48.48341" lon="1.30258">
        <ele>278</ele>
        <time>2019-01-28T10:35:28.000Z</time>
      </trkpt>
      <trkpt lat="48.48335" lon="1.30269">
        <ele>280</ele>
        <time>2019-01-28T10:35:36.000Z</time>
      </trkpt>
      <trkpt lat="48.48328" lon="1.30279">
        <ele>280</ele>
        <time>2019-01-28T10:35:44.000Z</time>
      </trkpt>
      <trkpt lat="48.48322" lon="1.3029">
        <ele>279</ele>
        <time>2019-01-28T10:35:51.000Z</time>
      </trkpt>
      <trkpt lat="48.48315" lon="1.30299">
        <ele>278</ele>
        <time>2019-01-28T10:35:59.000Z</time>
      </trkpt>
      <trkpt lat="48.48309" lon="1.3031">
        <ele>277</ele>
        <time>2019-01-28T10:36:07.000Z</time>
      </trkpt>
      <trkpt lat="48.48303" lon="1.3032">
        <ele>274</ele>
        <time>2019-01-28T10:36:17.000Z</time>
      </trkpt>
      <trkpt lat="48.48298" lon="1.30333">
        <ele>277</ele>
        <time>2019-01-28T10:36:25.000Z</time>
      </trkpt>
      <trkpt lat="48.48292" lon="1.30343">
        <ele>278</ele>
        <time>2019-01-28T10:36:36.000Z</time>
      </trkpt>
      <trkpt lat="48.48286" lon="1.30356">
        <ele>278</ele>
        <time>2019-01-28T10:36:44.000Z</time>
      </trkpt>
      <trkpt lat="48.48279" lon="1.30365">
        <ele>276</ele>
        <time>2019-01-28T10:36:52.000Z</time>
      </trkpt>
      <trkpt lat="48.48272" lon="1.30376">
        <ele>277</ele>
        <time>2019-01-28T10:37:02.000Z</time>
      </trkpt>
      <trkpt lat="48.48265" lon="1.30385">
        <ele>275</ele>
        <time>2019-01-28T10:37:09.000Z</time>
      </trkpt>
      <trkpt lat="48.48259" lon="1.30396">
        <ele>275</ele>
        <time>2019-01-28T10:37:18.000Z</time>
      </trkpt>
      <trkpt lat="48.48253" lon="1.30407">
        <ele>273</ele>
        <time>2019-01-28T10:37:27.000Z</time>
      </trkpt>
      <trkpt lat="48.48244" lon="1.30414">
        <ele>271</ele>
        <time>2019-01-28T10:37:36.000Z</time>
      </trkpt>
      <trkpt lat="48.48237" lon="1.30425">
        <ele>270</ele>
        <time>2019-01-28T10:37:47.000Z</time>
      </trkpt>
      <trkpt lat="48.48233" lon="1.30441">
        <ele>273</ele>
        <time>2019-01-28T10:37:57.000Z</time>
      </trkpt>
      <trkpt lat="48.48236" lon="1.30456">
        <ele>275</ele>
        <time>2019-01-28T10:38:05.000Z</time>
      </trkpt>
      <trkpt lat="48.48241" lon="1.30469">
        <ele>276</ele>
        <time>2019-01-28T10:38:15.000Z</time>
      </trkpt>
      <trkpt lat="48.48246" lon="1.3048">
        <ele>278</ele>
        <time>2019-01-28T10:38:24.000Z</time>
      </trkpt>
      <trkpt lat="48.48254" lon="1.3049">
        <ele>277</ele>
        <time>2019-01-28T10:38:32.000Z</time>
      </trkpt>
      <trkpt lat="48.4826" lon="1.30503">
        <ele>278</ele>
        <time>2019-01-28T10:38:43.000Z</time>
      </trkpt>
      <trkpt lat="48.48266" lon="1.30515">
        <ele>281</ele>
        <time>2019-01-28T10:38:53.000Z</time>
      </trkpt>
      <trkpt lat="48.48276" lon="1.30525">
        <ele>279</ele>
        <time>2019-01-28T10:39:04.000Z</time>
      </trkpt>
      <trkpt lat="48.48282" lon="1.30535">
        <ele>281</ele>
        <time>2019-01-28T10:39:15.000Z</time>
      </trkpt>
      <trkpt lat="48.48288" lon="1.30547">
        <ele>282</ele>
        <time>2019-01-28T10:39:24.000Z</time>
      </trkpt>
      <trkpt lat="48.48294" lon="1.30559">
        <ele>282</ele>
        <time>2019-01-28T10:39:32.000Z</time>
      </trkpt>
      <trkpt lat="48.48302" lon="1.30565">
        <ele>284</ele>
        <time>2019-01-28T10:39:42.000Z</time>
      </trkpt>
      <trkpt lat="48.48307" lon="1.30577">
        <ele>284</ele>
        <time>2019-01-28T10:39:54.000Z</time>
      </trkpt>
      <trkpt lat="48.48314" lon="1.30587">
        <ele>286</ele>
        <time>2019-01-28T10:40:03.000Z</time>
      </trkpt>
      <trkpt lat="48.48322" lon="1.30596">
        <ele>288</ele>
        <time>2019-01-28T10:40:13.000Z</time>
      </trkpt>
      <trkpt lat="48.48329" lon="1.30604">
        <ele>289</ele>
        <time>2019-01-28T10:40:22.000Z</time>
      </trkpt>
      <trkpt lat="48.48336" lon="1.30615">
        <ele>287</ele>
        <time>2019-01-28T10:40:32.000Z</time>
      </trkpt>
      <trkpt lat="48.48342" lon="1.30626">
        <ele>287</ele>
        <time>2019-01-28T10:40:41.000Z</time>
      </trkpt>
      <trkpt lat="48.48348" lon="1.30636">
        <ele>288</ele>
        <time>2019-01-28T10:40:50.000Z</time>
      </trkpt>
      <trkpt lat="48.48355" lon="1.30646">
        <ele>288</ele>
        <time>2019-01-28T10:41:01.000Z</time>
      </trkpt>
      <trkpt lat="48.48362" lon="1.30656">
        <ele>290</ele>
        <time>2019-01-28T10:41:11.000Z</time>
      </trkpt>
      <trkpt lat="48.48369" lon="1.30666">
        <ele>291</ele>
        <time>2019-01-28T10:41:23.000Z</time>
      </trkpt>
      <trkpt lat="48.48374" lon="1.30682">
        <ele>291</ele>
        <time>2019-01-28T10:41:31.000Z</time>
      </trkpt>
      <trkpt lat="48.48379" lon="1.30695">
        <ele>293</ele>
        <time>2019-01-28T10:41:41.000Z</time>
      </trkpt>
      <trkpt lat="48.48382" lon="1.30709">
        <ele>294</ele>
        <time>2019-01-28T10:41:50.000Z</time>
      </trkpt>
      <trkpt lat="48.48385" lon="1.30723">
        <ele>293</ele>
        <time>2019-01-28T10:42:01.000Z</time>
      </trkpt>
      <trkpt lat="48.48389" lon="1.30737">
        <ele>294</ele>
        <time>2019-01-28T10:42:13.000Z</time>
      </trkpt>
      <trkpt lat="48.48394" lon="1.30749">
        <ele>293</ele>
        <time>2019-01-28T10:42:22.000Z</time>
      </trkpt>
      <trkpt lat="48.48397" lon="1.30763">
        <ele>293</ele>
        <time>2019-01-28T10:42:32.000Z</time>
      </trkpt>
      <trkpt lat="48.48401" lon="1.30776">
        <ele>290</ele>
        <time>2019-01-28T10:42:40.000Z</time>
      </trkpt>
      <trkpt lat="48.484" lon="1.30792">
        <ele>289</ele>
        <time>2019-01-28T10:42:48.000Z</time>
      </trkpt>
      <trkpt lat="48.48395" lon="1.30803">
        <ele>287</ele>
        <time>2019-01-28T10:42:59.000Z</time>
      </trkpt>
      <trkpt lat="48.48389" lon="1.30816">
        <ele>287</ele>
        <time>2019-01-28T10:43:08.000Z</time>
      </trkpt>
      <trkpt lat="48.48387" lon="1.30829">
        <ele>286</ele>
        <time>2019-01-28T10:43:17.000Z</time>
      </trkpt>
      <trkpt lat="48.48389" lon="1.30843">
        <ele>285</ele>
        <time>2019-01-28T10:43:26.000Z</time>
      </trkpt>
      <trkpt lat="48.48389" lon="1.30858">
        <ele>283</ele>
        <time>2019-01-28T10:43:36.000Z</time>
      </trkpt>
      <trkpt lat="48.48389" lon="1.30872">
        <ele>283</ele>
        <time>2019-01-28T10:43:44.000Z</time>
      </trkpt>
      <trkpt lat="48.48387" lon="1.30885">
        <ele>283</ele>
        <time>2019-01-28T10:43:52.000Z</time>
      </trkpt>
      <trkpt lat="48.48379" lon="1.30895">
        <ele>285</ele>
        <time>2019-01-28T10:44:02.000Z</time>
      </trkpt>
      <trkpt lat="48.48371" lon="1.30904">
        <ele>283</ele>
        <time>2019-01-28T10:44:11.000Z</time>
      </trkpt>
      <trkpt lat="48.48364" lon="1.30912">
        <ele>283</ele>
        <time>2019-01-28T10:44:19.000Z</time>
      </trkpt>
      <trkpt lat="48.48357" lon="1.30921">
        <ele>282</ele>
        <time>2019-01-28T10:44:28.000Z</time>
      </trkpt>
      <trkpt lat="48.4835" lon="1.3093">
        <ele>282</ele>
        <time>2019-01-28T10:44:35.000Z</time>
      </trkpt>
      <trkpt lat="48.48341" lon="1.30938">
        <ele>282</ele>
        <time>2019-01-28T10:44:44.000Z</time>
      </trkpt>
      <trkpt lat="48.48333" lon="1.30947">
        <ele>280</ele>
        <time>2019-01-28T10:44:52.000Z</time>
      </trkpt>
      <trkpt lat="48.48325" lon="1.30954">
        <ele>281</ele>
        <time>2019-01-28T10:45:00.000Z</time>
      </trkpt>
      <trkpt lat="48.48317" lon="1.3096">
        <ele>283</ele>
        <time>2019-01-28T10:45:08.000Z</time>
      </trkpt>
      <trkpt lat="48.4831" lon="1.3097">
        <ele>281</ele>
        <time>2019-01-28T10:45:16.000Z</time>
      </trkpt>
      <trkpt lat="48.48304" lon="1.3098">
        <ele>281</ele>
        <time>2019-01-28T10:45:27.000Z</time>
      </trkpt>
      <trkpt lat="48.48299" lon="1.30992">
        <ele>283</ele>
        <time>2019-01-28T10:45:36.000Z</time>
      </trkpt>
      <trkpt lat="48.48294" lon="1.31006">
        <ele>282</ele>
        <time>2019-01-28T10:45:44.000Z</time>
      </trkpt>
      <trkpt lat="48.48292" lon="1.31021">
        <ele>283</ele>
        <time>2019-01-28T10:45:54.000Z</time>
      </trkpt>
      <trkpt lat="48.48292" lon="1.31036">
        <ele>285</ele>
        <time>2019-01-28T10:46:04.000Z</time>
      </trkpt>
      <trkpt lat="48.48294" lon="1.31051">
        <ele>287</ele>
        <time>2019-01-28T10:46:12.000Z</time>
      </trkpt>
      <trkpt lat="48.48293" lon="1.31064">
        <ele>288</ele>
        <time>2019-01-28T10:46:20.000Z</time>
      </trkpt>
      <trkpt lat="48.48296" lon="1.31078">
        <ele>291</ele>
        <time>2019-01-28T10:46:28.000Z</time>
      </trkpt>
      <trkpt lat="48.48299" lon="1.31091">
        <ele>291</ele>
        <time>2019-01-28T10:46:38.000Z</time>
      </trkpt>
      <trkpt lat="48.483" lon="1.31106">
        <ele>291</ele>
        <time>2019-01-28T10:46:46.000Z</time>
      </trkpt>
      <trkpt lat="48.48304" lon="1.31119">
        <ele>291</ele>
        <time>2019-01-28T10:46:54.000Z</time>
      </trkpt>
      <trkpt lat="48.48301" lon="1.31135">
        <ele>288</ele>
        <time>2019-01-28T10:47:05.000Z</time>
      </trkpt>
      <trkpt lat="48.48303" lon="1.3115">
        <ele>285</ele>
        <time>2019-01-28T10:47:12.000Z</time>
      </trkpt>
      <trkpt lat="48.48305" lon="1.31164">
        <ele>284</ele>
        <time>2019-01-28T10:47:21.000Z</time>
      </trkpt>
      <trkpt lat="48.48298" lon="1.31171">
        <ele>281</ele>
        <time>2019-01-28T10:47:34.000Z</time>
      </trkpt>
      <trkpt lat="48.48292" lon="1.31182">
        <ele>280</ele>
        <time>2019-01-28T10:47:43.000Z</time>
      </trkpt>
      <trkpt lat="48.48288" lon="1.31194">
        <ele>280</ele>
        <time>2019-01-28T10:47:55.000Z</time>
      </trkpt>
      <trkpt lat="48.48277" lon="1.31196">
        <ele>278</ele>
        <time>2019-01-28T10:48:07.000Z</time>
      </trkpt>
      <trkpt lat="48.48266" lon="1.312">
        <ele>276</ele>
        <time>2019-01-28T10:48:15.000Z</time>
      </trkpt>
      <trkpt lat="48.48257" lon="1.31208">
        <ele>275</ele>
        <time>2019-01-28T10:48:25.000Z</time>
      </trkpt>
      <trkpt lat="48.48249" lon="1.31213">
        <ele>277</ele>
        <time>2019-01-28T10:48:32.000Z</time>
      </trkpt>
      <trkpt lat="48.48241" lon="1.31223">
        <ele>279</ele>
        <time>2019-01-28T10:48:42.000Z</time>
      </trkpt>
      <trkpt lat="48.48231" lon="1.31223">
        <ele>276</ele>
        <time>2019-01-28T10:48:54.000Z</time>
      </trkpt>
      <trkpt lat="48.48224" lon="1.31232">
        <ele>276</ele>
        <time>2019-01-28T10:49:09.000Z</time>
      </trkpt>
      <trkpt lat="48.48215" lon="1.31237">
        <ele>276</ele>
        <time>2019-01-28T10:49:19.000Z</time>
      </trkpt>
      <trkpt lat="48.48208" lon="1.31247">
        <ele>274</ele>
        <time>2019-01-28T10:49:26.000Z</time>
      </trkpt>
      <trkpt lat="48.48201" lon="1.31259">
        <ele>275</ele>
        <time>2019-01-28T10:49:37.000Z</time>
      </trkpt>
      <trkpt lat="48.48204" lon="1.31273">
        <ele>274</ele>
        <time>2019-01-28T10:49:45.000Z</time>
      </trkpt>
      <trkpt lat="48.48204" lon="1.31289">
        <ele>274</ele>
        <time>2019-01-28T10:49:55.000Z</time>
      </trkpt>
      <trkpt lat="48.48201" lon="1.31303">
        <ele>273</ele>
        <time>2019-01-28T10:50:04.000Z</time>
      </trkpt>
      <trkpt lat="48.48198" lon="1.31316">
        <ele>275</ele>
        <time>2019-01-28T10:50:14.000Z</time>
      </trkpt>
      <trkpt lat="48.48195" lon="1.3133">
        <ele>275</ele>
        <time>2019-01-28T10:50:23.000Z</time>
      </trkpt>
      <trkpt lat="48.48192" lon="1.31343">
        <ele>275</ele>
        <time>2019-01-28T10:50:31.000Z</time>
      </trkpt>
      <trkpt lat="48.48188" lon="1.31357">
        <ele>276</ele>
        <time>2019-01-28T10:50:43.000Z</time>
      </trkpt>
      <trkpt lat="48.48185" lon="1.31371">
        <ele>275</ele>
        <time>2019-01-28T10:50:51.000Z</time>
      </trkpt>
      <trkpt lat="48.4818" lon="1.31385">
        <ele>275</ele>
        <time>2019-01-28T10:50:59.000Z</time>
      </trkpt>
      <trkpt lat="48.48175" lon="1.31397">
        <ele>275</ele>
        <time>2019-01-28T10:51:07.000Z</time>
      </trkpt>
      <trkpt lat="48.48173" lon="1.31412">
        <ele>275</ele>
        <time>2019-01-28T10:51:16.000Z</time>
      </trkpt>
      <trkpt lat="48.48169" lon="1.31424">
        <ele>273</ele>
        <time>2019-01-28T10:51:25.000Z</time>
      </trkpt>
      <trkpt lat="48.48164" lon="1.31438">
        <ele>272</ele>
        <time>2019-01-28T10:51:33.000Z</time>
      </trkpt>
      <trkpt lat="48.48159" lon="1.3145">
        <ele>271</ele>
        <time>2019-01-28T10:51:41.000Z</time>
      </trkpt>
      <trkpt lat="48.48152" lon="1.31461">
        <ele>270</ele>
        <time>2019-01-28T10:51:48.000Z</time>
      </trkpt>
      <trkpt lat="48.48146" lon="1.31474">
        <ele>271</ele>
        <time>2019-01-28T10:51:56.000Z</time>
      </trkpt>
      <trkpt lat="48.48138" lon="1.31487">
        <ele>271</ele>
        <time>2019-01-28T10:52:05.000Z</time>
      </trkpt>
      <trkpt lat="48.48133" lon="1.31499">
        <ele>271</ele>
        <time>2019-01-28T10:52:13.000Z</time>
      </trkpt>
      <trkpt lat="48.48129" lon="1.31512">
        <ele>272</ele>
        <time>2019-01-28T10:52:21.000Z</time>
      </trkpt>
      <trkpt lat="48.48124" lon="1.31524">
        <ele>270</ele>
        <time>2019-01-28T10:52:30.000Z</time>
      </trkpt>
      <trkpt lat="48.48121" lon="1.31538">
        <ele>269</ele>
        <time>2019-01-28T10:52:38.000Z</time>
      </trkpt>
      <trkpt lat="48.48119" lon="1.31552">
        <ele>268</ele>
        <time>2019-01-28T10:52:46.000Z</time>
      </trkpt>
      <trkpt lat="48.48117" lon="1.31567">
        <ele>268</ele>
        <time>2019-01-28T10:52:55.000Z</time>
      </trkpt>
      <trkpt lat="48.48116" lon="1.31582">
        <ele>268</ele>
        <time>2019-01-28T10:53:04.000Z</time>
      </trkpt>
      <trkpt lat="48.48115" lon="1.31597">
        <ele>272</ele>
        <time>2019-01-28T10:53:15.000Z</time>
      </trkpt>
      <trkpt lat="48.48116" lon="1.31612">
        <ele>280</ele>
        <time>2019-01-28T10:53:21.000Z</time>
      </trkpt>
      <trkpt lat="48.48114" lon="1.31627">
        <ele>287</ele>
        <time>2019-01-28T10:53:28.000Z</time>
      </trkpt>
      <trkpt lat="48.48111" lon="1.31641">
        <ele>285</ele>
        <time>2019-01-28T10:53:34.000Z</time>
      </trkpt>
      <trkpt lat="48.48116" lon="1.31653">
        <ele>284</ele>
        <time>2019-01-28T10:53:45.000Z</time>
      </trkpt>
      <trkpt lat="48.48121" lon="1.31665">
        <ele>281</ele>
        <time>2019-01-28T10:53:55.000Z</time>
      </trkpt>
      <trkpt lat="48.4813" lon="1.3167">
        <ele>280</ele>
        <time>2019-01-28T10:54:06.000Z</time>
      </trkpt>
      <trkpt lat="48.48138" lon="1.31676">
        <ele>280</ele>
        <time>2019-01-28T10:54:17.000Z</time>
      </trkpt>
      <trkpt lat="48.48139" lon="1.31691">
        <ele>279</ele>
        <time>2019-01-28T10:54:28.000Z</time>
      </trkpt>
      <trkpt lat="48.48136" lon="1.31705">
        <ele>276</ele>
        <time>2019-01-28T10:54:49.000Z</time>
      </trkpt>
      <trkpt lat="48.48131" lon="1.31717">
        <ele>279</ele>
        <time>2019-01-28T10:55:05.000Z</time>
      </trkpt>
      <trkpt lat="48.48126" lon="1.3173">
        <ele>276</ele>
        <time>2019-01-28T10:55:27.000Z</time>
      </trkpt>
      <trkpt lat="48.48121" lon="1.31743">
        <ele>278</ele>
        <time>2019-01-28T10:55:41.000Z</time>
      </trkpt>
      <trkpt lat="48.48123" lon="1.31757">
        <ele>279</ele>
        <time>2019-01-28T10:55:55.000Z</time>
      </trkpt>
      <trkpt lat="48.48119" lon="1.3177">
        <ele>276</ele>
        <time>2019-01-28T10:56:12.000Z</time>
      </trkpt>
      <trkpt lat="48.48121" lon="1.31785">
        <ele>278</ele>
        <time>2019-01-28T10:56:25.000Z</time>
      </trkpt>
      <trkpt lat="48.48123" lon="1.31798">
        <ele>279</ele>
        <time>2019-01-28T10:56:36.000Z</time>
      </trkpt>
      <trkpt lat="48.48114" lon="1.31807">
        <ele>279</ele>
        <time>2019-01-28T10:57:05.000Z</time>
      </trkpt>
      <trkpt lat="48.48112" lon="1.31822">
        <ele>279</ele>
        <time>2019-01-28T10:57:14.000Z</time>
      </trkpt>
      <trkpt lat="48.48109" lon="1.31837">
        <ele>279</ele>
        <time>2019-01-28T10:57:25.000Z</time>
      </trkpt>
      <trkpt lat="48.48108" lon="1.31851">
        <ele>280</ele>
        <time>2019-01-28T10:57:36.000Z</time>
      </trkpt>
      <trkpt lat="48.48104" lon="1.31865">
        <ele>277</ele>
        <time>2019-01-28T10:57:47.000Z</time>
      </trkpt>
      <trkpt lat="48.48102" lon="1.31879">
        <ele>275</ele>
        <time>2019-01-28T10:57:57.000Z</time>
      </trkpt>
      <trkpt lat="48.481" lon="1.31892">
        <ele>276</ele>
        <time>2019-01-28T10:58:08.000Z</time>
      </trkpt>
      <trkpt lat="48.48096" lon="1.31905">
        <ele>277</ele>
        <time>2019-01-28T10:58:18.000Z</time>
      </trkpt>
      <trkpt lat="48.48091" lon="1.31917">
        <ele>276</ele>
        <time>2019-01-28T10:58:27.000Z</time>
      </trkpt>
      <trkpt lat="48.48084" lon="1.31928">
        <ele>276</ele>
        <time>2019-01-28T10:58:34.000Z</time>
      </trkpt>
      <trkpt lat="48.48078" lon="1.31938">
        <ele>277</ele>
        <time>2019-01-28T10:58:39.000Z</time>
      </trkpt>
      <trkpt lat="48.48074" lon="1.31951">
        <ele>277</ele>
        <time>2019-01-28T10:58:46.000Z</time>
      </trkpt>
      <trkpt lat="48.48069" lon="1.31963">
        <ele>277</ele>
        <time>2019-01-28T10:58:55.000Z</time>
      </trkpt>
      <trkpt lat="48.48064" lon="1.31976">
        <ele>277</ele>
        <time>2019-01-28T10:59:03.000Z</time>
      </trkpt>
      <trkpt lat="48.48056" lon="1.31985">
        <ele>275</ele>
        <time>2019-01-28T10:59:11.000Z</time>
      </trkpt>
      <trkpt lat="48.48056" lon="1.31999">
        <ele>276</ele>
        <time>2019-01-28T10:59:21.000Z</time>
      </trkpt>
      <trkpt lat="48.48054" lon="1.32013">
        <ele>276</ele>
        <time>2019-01-28T10:59:29.000Z</time>
      </trkpt>
      <trkpt lat="48.48052" lon="1.3203">
        <ele>276</ele>
        <time>2019-01-28T10:59:40.000Z</time>
      </trkpt>
      <trkpt lat="48.48048" lon="1.32042">
        <ele>275</ele>
        <time>2019-01-28T10:59:49.000Z</time>
      </trkpt>
      <trkpt lat="48.48045" lon="1.32057">
        <ele>274</ele>
        <time>2019-01-28T10:59:57.000Z</time>
      </trkpt>
      <trkpt lat="48.48043" lon="1.32071">
        <ele>273</ele>
        <time>2019-01-28T11:00:06.000Z</time>
      </trkpt>
      <trkpt lat="48.4804" lon="1.32086">
        <ele>275</ele>
        <time>2019-01-28T11:00:16.000Z</time>
      </trkpt>
      <trkpt lat="48.48035" lon="1.32099">
        <ele>274</ele>
        <time>2019-01-28T11:00:26.000Z</time>
      </trkpt>
      <trkpt lat="48.48032" lon="1.32113">
        <ele>275</ele>
        <time>2019-01-28T11:00:36.000Z</time>
      </trkpt>
      <trkpt lat="48.48029" lon="1.32126">
        <ele>275</ele>
        <time>2019-01-28T11:00:45.000Z</time>
      </trkpt>
      <trkpt lat="48.48026" lon="1.32141">
        <ele>275</ele>
        <time>2019-01-28T11:00:54.000Z</time>
      </trkpt>
      <trkpt lat="48.48026" lon="1.32158">
        <ele>274</ele>
        <time>2019-01-28T11:01:05.000Z</time>
      </trkpt>
      <trkpt lat="48.48025" lon="1.32172">
        <ele>274</ele>
        <time>2019-01-28T11:01:16.000Z</time>
      </trkpt>
      <trkpt lat="48.48018" lon="1.32187">
        <ele>274</ele>
        <time>2019-01-28T11:01:25.000Z</time>
      </trkpt>
      <trkpt lat="48.48013" lon="1.322">
        <ele>272</ele>
        <time>2019-01-28T11:01:31.000Z</time>
      </trkpt>
      <trkpt lat="48.48018" lon="1.32213">
        <ele>273</ele>
        <time>2019-01-28T11:01:40.000Z</time>
      </trkpt>
      <trkpt lat="48.48026" lon="1.32219">
        <ele>274</ele>
        <time>2019-01-28T11:01:48.000Z</time>
      </trkpt>
      <trkpt lat="48.48036" lon="1.32227">
        <ele>277</ele>
        <time>2019-01-28T11:01:57.000Z</time>
      </trkpt>
      <trkpt lat="48.48045" lon="1.32236">
        <ele>276</ele>
        <time>2019-01-28T11:02:07.000Z</time>
      </trkpt>
      <trkpt lat="48.48054" lon="1.32244">
        <ele>278</ele>
        <time>2019-01-28T11:02:17.000Z</time>
      </trkpt>
      <trkpt lat="48.4806" lon="1.32258">
        <ele>279</ele>
        <time>2019-01-28T11:02:25.000Z</time>
      </trkpt>
      <trkpt lat="48.48067" lon="1.32269">
        <ele>279</ele>
        <time>2019-01-28T11:02:34.000Z</time>
      </trkpt>
      <trkpt lat="48.48073" lon="1.32279">
        <ele>281</ele>
        <time>2019-01-28T11:02:41.000Z</time>
      </trkpt>
      <trkpt lat="48.48081" lon="1.32287">
        <ele>281</ele>
        <time>2019-01-28T11:02:50.000Z</time>
      </trkpt>
      <trkpt lat="48.48089" lon="1.32296">
        <ele>282</ele>
        <time>2019-01-28T11:02:59.000Z</time>
      </trkpt>
      <trkpt lat="48.48095" lon="1.32306">
        <ele>282</ele>
        <time>2019-01-28T11:03:08.000Z</time>
      </trkpt>
      <trkpt lat="48.48101" lon="1.32316">
        <ele>282</ele>
        <time>2019-01-28T11:03:15.000Z</time>
      </trkpt>
      <trkpt lat="48.48109" lon="1.32326">
        <ele>282</ele>
        <time>2019-01-28T11:03:25.000Z</time>
      </trkpt>
      <trkpt lat="48.48116" lon="1.32335">
        <ele>282</ele>
        <time>2019-01-28T11:03:34.000Z</time>
      </trkpt>
      <trkpt lat="48.48111" lon="1.32346">
        <ele>282</ele>
        <time>2019-01-28T11:03:44.000Z</time>
      </trkpt>
      <trkpt lat="48.48111" lon="1.32361">
        <ele>280</ele>
        <time>2019-01-28T11:04:00.000Z</time>
      </trkpt>
      <trkpt lat="48.48107" lon="1.32373">
        <ele>279</ele>
        <time>2019-01-28T11:04:19.000Z</time>
      </trkpt>
      <trkpt lat="48.48103" lon="1.32386">
        <ele>280</ele>
        <time>2019-01-28T11:04:27.000Z</time>
      </trkpt>
      <trkpt lat="48.48098" lon="1.32398">
        <ele>282</ele>
        <time>2019-01-28T11:04:36.000Z</time>
      </trkpt>
      <trkpt lat="48.48092" lon="1.32411">
        <ele>284</ele>
        <time>2019-01-28T11:04:46.000Z</time>
      </trkpt>
      <trkpt lat="48.48092" lon="1.32425">
        <ele>283</ele>
        <time>2019-01-28T11:04:57.000Z</time>
      </trkpt>
      <trkpt lat="48.48089" lon="1.32439">
        <ele>283</ele>
        <time>2019-01-28T11:05:06.000Z</time>
      </trkpt>
      <trkpt lat="48.48084" lon="1.32451">
        <ele>282</ele>
        <time>2019-01-28T11:05:13.000Z</time>
      </trkpt>
      <trkpt lat="48.48081" lon="1.32465">
        <ele>280</ele>
        <time>2019-01-28T11:05:24.000Z</time>
      </trkpt>
      <trkpt lat="48.48077" lon="1.32478">
        <ele>280</ele>
        <time>2019-01-28T11:05:32.000Z</time>
      </trkpt>
      <trkpt lat="48.48074" lon="1.32492">
        <ele>280</ele>
        <time>2019-01-28T11:05:41.000Z</time>
      </trkpt>
      <trkpt lat="48.48071" lon="1.32506">
        <ele>279</ele>
        <time>2019-01-28T11:05:54.000Z</time>
      </trkpt>
      <trkpt lat="48.48069" lon="1.32519">
        <ele>280</ele>
        <time>2019-01-28T11:06:01.000Z</time>
      </trkpt>
      <trkpt lat="48.48068" lon="1.32534">
        <ele>283</ele>
        <time>2019-01-28T11:06:11.000Z</time>
      </trkpt>
      <trkpt lat="48.48063" lon="1.32546">
        <ele>284</ele>
        <time>2019-01-28T11:06:19.000Z</time>
      </trkpt>
      <trkpt lat="48.48059" lon="1.32559">
        <ele>285</ele>
        <time>2019-01-28T11:06:27.000Z</time>
      </trkpt>
      <trkpt lat="48.48056" lon="1.32572">
        <ele>284</ele>
        <time>2019-01-28T11:06:34.000Z</time>
      </trkpt>
      <trkpt lat="48.48051" lon="1.32585">
        <ele>285</ele>
        <time>2019-01-28T11:06:42.000Z</time>
      </trkpt>
      <trkpt lat="48.48047" lon="1.32598">
        <ele>287</ele>
        <time>2019-01-28T11:06:50.000Z</time>
      </trkpt>
      <trkpt lat="48.48043" lon="1.32612">
        <ele>289</ele>
        <time>2019-01-28T11:06:59.000Z</time>
      </trkpt>
      <trkpt lat="48.48042" lon="1.32626">
        <ele>289</ele>
        <time>2019-01-28T11:07:07.000Z</time>
      </trkpt>
      <trkpt lat="48.48037" lon="1.32637">
        <ele>289</ele>
        <time>2019-01-28T11:07:14.000Z</time>
      </trkpt>
      <trkpt lat="48.48035" lon="1.32651">
        <ele>288</ele>
        <time>2019-01-28T11:07:23.000Z</time>
      </trkpt>
      <trkpt lat="48.4803" lon="1.32662">
        <ele>290</ele>
        <time>2019-01-28T11:07:31.000Z</time>
      </trkpt>
      <trkpt lat="48.48026" lon="1.32676">
        <ele>290</ele>
        <time>2019-01-28T11:07:39.000Z</time>
      </trkpt>
      <trkpt lat="48.48024" lon="1.3269">
        <ele>289</ele>
        <time>2019-01-28T11:07:49.000Z</time>
      </trkpt>
      <trkpt lat="48.48019" lon="1.32705">
        <ele>288</ele>
        <time>2019-01-28T11:07:58.000Z</time>
      </trkpt>
      <trkpt lat="48.48015" lon="1.32717">
        <ele>287</ele>
        <time>2019-01-28T11:08:04.000Z</time>
      </trkpt>
      <trkpt lat="48.48012" lon="1.32732">
        <ele>287</ele>
        <time>2019-01-28T11:08:12.000Z</time>
      </trkpt>
      <trkpt lat="48.48011" lon="1.32746">
        <ele>286</ele>
        <time>2019-01-28T11:08:22.000Z</time>
      </trkpt>
      <trkpt lat="48.48014" lon="1.32761">
        <ele>287</ele>
        <time>2019-01-28T11:08:31.000Z</time>
      </trkpt>
      <trkpt lat="48.48019" lon="1.32772">
        <ele>287</ele>
        <time>2019-01-28T11:08:38.000Z</time>
      </trkpt>
      <trkpt lat="48.48026" lon="1.32784">
        <ele>288</ele>
        <time>2019-01-28T11:08:46.000Z</time>
      </trkpt>
      <trkpt lat="48.48028" lon="1.32798">
        <ele>286</ele>
        <time>2019-01-28T11:08:55.000Z</time>
      </trkpt>
      <trkpt lat="48.48032" lon="1.32814">
        <ele>287</ele>
        <time>2019-01-28T11:09:06.000Z</time>
      </trkpt>
      <trkpt lat="48.48038" lon="1.32824">
        <ele>289</ele>
        <time>2019-01-28T11:09:16.000Z</time>
      </trkpt>
      <trkpt lat="48.4804" lon="1.3284">
        <ele>286</ele>
        <time>2019-01-28T11:09:28.000Z</time>
      </trkpt>
      <trkpt lat="48.48032" lon="1.32846">
        <ele>287</ele>
        <time>2019-01-28T11:09:37.000Z</time>
      </trkpt>
      <trkpt lat="48.48023" lon="1.3285">
        <ele>289</ele>
        <time>2019-01-28T11:09:50.000Z</time>
      </trkpt>
      <trkpt lat="48.48016" lon="1.32858">
        <ele>288</ele>
        <time>2019-01-28T11:09:59.000Z</time>
      </trkpt>
      <trkpt lat="48.48006" lon="1.3286">
        <ele>289</ele>
        <time>2019-01-28T11:10:10.000Z</time>
      </trkpt>
      <trkpt lat="48.47996" lon="1.32855">
        <ele>293</ele>
        <time>2019-01-28T11:10:23.000Z</time>
      </trkpt>
      <trkpt lat="48.47986" lon="1.32857">
        <ele>294</ele>
        <time>2019-01-28T11:10:31.000Z</time>
      </trkpt>
      <trkpt lat="48.47976" lon="1.32858">
        <ele>295</ele>
        <time>2019-01-28T11:10:40.000Z</time>
      </trkpt>
      <trkpt lat="48.47967" lon="1.3286">
        <ele>293</ele>
        <time>2019-01-28T11:10:50.000Z</time>
      </trkpt>
      <trkpt lat="48.47958" lon="1.32863">
        <ele>296</ele>
        <time>2019-01-28T11:10:58.000Z</time>
      </trkpt>
      <trkpt lat="48.47948" lon="1.32863">
        <ele>295</ele>
        <time>2019-01-28T11:11:06.000Z</time>
      </trkpt>
      <trkpt lat="48.47938" lon="1.32866">
        <ele>293</ele>
        <time>2019-01-28T11:11:13.000Z</time>
      </trkpt>
      <trkpt lat="48.47929" lon="1.32867">
        <ele>292</ele>
        <time>2019-01-28T11:11:23.000Z</time>
      </trkpt>
      <trkpt lat="48.4792" lon="1.3287">
        <ele>291</ele>
        <time>2019-01-28T11:11:31.000Z</time>
      </trkpt>
      <trkpt lat="48.4791" lon="1.32872">
        <ele>292</ele>
        <time>2019-01-28T11:11:43.000Z</time>
      </trkpt>
      <trkpt lat="48.47899" lon="1.32871">
        <ele>293</ele>
        <time>2019-01-28T11:11:53.000Z</time>
      </trkpt>
      <trkpt lat="48.4789" lon="1.32872">
        <ele>290</ele>
        <time>2019-01-28T11:12:02.000Z</time>
      </trkpt>
      <trkpt lat="48.47881" lon="1.32877">
        <ele>290</ele>
        <time>2019-01-28T11:12:10.000Z</time>
      </trkpt>
      <trkpt lat="48.47872" lon="1.32879">
        <ele>291</ele>
        <time>2019-01-28T11:12:19.000Z</time>
      </trkpt>
      <trkpt lat="48.4786" lon="1.3288">
        <ele>290</ele>
        <time>2019-01-28T11:12:30.000Z</time>
      </trkpt>
      <trkpt lat="48.4785" lon="1.32881">
        <ele>289</ele>
        <time>2019-01-28T11:12:38.000Z</time>
      </trkpt>
      <trkpt lat="48.47841" lon="1.32886">
        <ele>286</ele>
        <time>2019-01-28T11:12:47.000Z</time>
      </trkpt>
      <trkpt lat="48.47831" lon="1.32886">
        <ele>286</ele>
        <time>2019-01-28T11:12:58.000Z</time>
      </trkpt>
      <trkpt lat="48.4782" lon="1.32889">
        <ele>285</ele>
        <time>2019-01-28T11:13:06.000Z</time>
      </trkpt>
      <trkpt lat="48.47812" lon="1.32894">
        <ele>285</ele>
        <time>2019-01-28T11:13:15.000Z</time>
      </trkpt>
      <trkpt lat="48.47802" lon="1.32894">
        <ele>283</ele>
        <time>2019-01-28T11:13:22.000Z</time>
      </trkpt>
      <trkpt lat="48.47793" lon="1.32896">
        <ele>283</ele>
        <time>2019-01-28T11:13:31.000Z</time>
      </trkpt>
      <trkpt lat="48.47782" lon="1.32897">
        <ele>282</ele>
        <time>2019-01-28T11:13:39.000Z</time>
      </trkpt>
      <trkpt lat="48.47773" lon="1.329">
        <ele>280</ele>
        <time>2019-01-28T11:13:47.000Z</time>
      </trkpt>
      <trkpt lat="48.47763" lon="1.32902">
        <ele>281</ele>
        <time>2019-01-28T11:13:56.000Z</time>
      </trkpt>
      <trkpt lat="48.47763" lon="1.32888">
        <ele>278</ele>
        <time>2019-01-28T11:14:07.000Z</time>
      </trkpt>
      <trkpt lat="48.47762" lon="1.32874">
        <ele>280</ele>
        <time>2019-01-28T11:14:16.000Z</time>
      </trkpt>
      <trkpt lat="48.47762" lon="1.3286">
        <ele>278</ele>
        <time>2019-01-28T11:14:25.000Z</time>
      </trkpt>
      <trkpt lat="48.47762" lon="1.32846">
        <ele>279</ele>
        <time>2019-01-28T11:14:34.000Z</time>
      </trkpt>
      <trkpt lat="48.4776" lon="1.32832">
        <ele>279</ele>
        <time>2019-01-28T11:14:41.000Z</time>
      </trkpt>
      <trkpt lat="48.47758" lon="1.32816">
        <ele>279</ele>
        <time>2019-01-28T11:14:50.000Z</time>
      </trkpt>
      <trkpt lat="48.47756" lon="1.32802">
        <ele>279</ele>
        <time>2019-01-28T11:14:57.000Z</time>
      </trkpt>
      <trkpt lat="48.47755" lon="1.32787">
        <ele>277</ele>
        <time>2019-01-28T11:15:06.000Z</time>
      </trkpt>
      <trkpt lat="48.47755" lon="1.32771">
        <ele>278</ele>
        <time>2019-01-28T11:15:18.000Z</time>
      </trkpt>
      <trkpt lat="48.47752" lon="1.32756">
        <ele>275</ele>
        <time>2019-01-28T11:15:25.000Z</time>
      </trkpt>
      <trkpt lat="48.47751" lon="1.32741">
        <ele>277</ele>
        <time>2019-01-28T11:15:34.000Z</time>
      </trkpt>
      <trkpt lat="48.4775" lon="1.32726">
        <ele>276</ele>
        <time>2019-01-28T11:15:42.000Z</time>
      </trkpt>
      <trkpt lat="48.47749" lon="1.32712">
        <ele>276</ele>
        <time>2019-01-28T11:15:51.000Z</time>
      </trkpt>
      <trkpt lat="48.47749" lon="1.32694">
        <ele>274</ele>
        <time>2019-01-28T11:16:02.000Z</time>
      </trkpt>
      <trkpt lat="48.47747" lon="1.32678">
        <ele>274</ele>
        <time>2019-01-28T11:16:11.000Z</time>
      </trkpt>
      <trkpt lat="48.47746" lon="1.32665">
        <ele>273</ele>
        <time>2019-01-28T11:16:20.000Z</time>
      </trkpt>
      <trkpt lat="48.47745" lon="1.32651">
        <ele>275</ele>
        <time>2019-01-28T11:16:28.000Z</time>
      </trkpt>
      <trkpt lat="48.47743" lon="1.32633">
        <ele>274</ele>
        <time>2019-01-28T11:16:39.000Z</time>
      </trkpt>
      <trkpt lat="48.47741" lon="1.3262">
        <ele>273</ele>
        <time>2019-01-28T11:16:47.000Z</time>
      </trkpt>
      <trkpt lat="48.4774" lon="1.32606">
        <ele>273</ele>
        <time>2019-01-28T11:16:54.000Z</time>
      </trkpt>
      <trkpt lat="48.47737" lon="1.32592">
        <ele>275</ele>
        <time>2019-01-28T11:17:04.000Z</time>
      </trkpt>
      <trkpt lat="48.47736" lon="1.32577">
        <ele>274</ele>
        <time>2019-01-28T11:17:12.000Z</time>
      </trkpt>
      <trkpt lat="48.47733" lon="1.32562">
        <ele>273</ele>
        <time>2019-01-28T11:17:20.000Z</time>
      </trkpt>
      <trkpt lat="48.47735" lon="1.32547">
        <ele>272</ele>
        <time>2019-01-28T11:17:27.000Z</time>
      </trkpt>
      <trkpt lat="48.47734" lon="1.32534">
        <ele>273</ele>
        <time>2019-01-28T11:17:35.000Z</time>
      </trkpt>
      <trkpt lat="48.47734" lon="1.32519">
        <ele>274</ele>
        <time>2019-01-28T11:17:43.000Z</time>
      </trkpt>
      <trkpt lat="48.47734" lon="1.32503">
        <ele>276</ele>
        <time>2019-01-28T11:17:53.000Z</time>
      </trkpt>
      <trkpt lat="48.47733" lon="1.32489">
        <ele>276</ele>
        <time>2019-01-28T11:18:01.000Z</time>
      </trkpt>
      <trkpt lat="48.4773" lon="1.32474">
        <ele>275</ele>
        <time>2019-01-28T11:18:10.000Z</time>
      </trkpt>
      <trkpt lat="48.4773" lon="1.3246">
        <ele>276</ele>
        <time>2019-01-28T11:18:18.000Z</time>
      </trkpt>
      <trkpt lat="48.4773" lon="1.32446">
        <ele>276</ele>
        <time>2019-01-28T11:18:27.000Z</time>
      </trkpt>
      <trkpt lat="48.47727" lon="1.32432">
        <ele>275</ele>
        <time>2019-01-28T11:18:34.000Z</time>
      </trkpt>
      <trkpt lat="48.47727" lon="1.32418">
        <ele>276</ele>
        <time>2019-01-28T11:18:42.000Z</time>
      </trkpt>
      <trkpt lat="48.47727" lon="1.32404">
        <ele>277</ele>
        <time>2019-01-28T11:18:51.000Z</time>
      </trkpt>
      <trkpt lat="48.47725" lon="1.32389">
        <ele>277</ele>
        <time>2019-01-28T11:18:59.000Z</time>
      </trkpt>
      <trkpt lat="48.47723" lon="1.32372">
        <ele>276</ele>
        <time>2019-01-28T11:19:10.000Z</time>
      </trkpt>
      <trkpt lat="48.47723" lon="1.32357">
        <ele>274</ele>
        <time>2019-01-28T11:19:18.000Z</time>
      </trkpt>
      <trkpt lat="48.47722" lon="1.32342">
        <ele>275</ele>
        <time>2019-01-28T11:19:27.000Z</time>
      </trkpt>
      <trkpt lat="48.4772" lon="1.32325">
        <ele>274</ele>
        <time>2019-01-28T11:19:36.000Z</time>
      </trkpt>
      <trkpt lat="48.47719" lon="1.32308">
        <ele>272</ele>
        <time>2019-01-28T11:19:47.000Z</time>
      </trkpt>
      <trkpt lat="48.47717" lon="1.32294">
        <ele>272</ele>
        <time>2019-01-28T11:19:55.000Z</time>
      </trkpt>
      <trkpt lat="48.47717" lon="1.32279">
        <ele>271</ele>
        <time>2019-01-28T11:20:03.000Z</time>
      </trkpt>
      <trkpt lat="48.47717" lon="1.32266">
        <ele>270</ele>
        <time>2019-01-28T11:20:10.000Z</time>
      </trkpt>
      <trkpt lat="48.47716" lon="1.32251">
        <ele>269</ele>
        <time>2019-01-28T11:20:18.000Z</time>
      </trkpt>
      <trkpt lat="48.47715" lon="1.32237">
        <ele>269</ele>
        <time>2019-01-28T11:20:26.000Z</time>
      </trkpt>
      <trkpt lat="48.47713" lon="1.32223">
        <ele>270</ele>
        <time>2019-01-28T11:20:34.000Z</time>
      </trkpt>
      <trkpt lat="48.47713" lon="1.32208">
        <ele>270</ele>
        <time>2019-01-28T11:20:43.000Z</time>
      </trkpt>
      <trkpt lat="48.47712" lon="1.32192">
        <ele>269</ele>
        <time>2019-01-28T11:20:49.000Z</time>
      </trkpt>
      <trkpt lat="48.4771" lon="1.32178">
        <ele>269</ele>
        <time>2019-01-28T11:20:58.000Z</time>
      </trkpt>
      <trkpt lat="48.4771" lon="1.32164">
        <ele>269</ele>
        <time>2019-01-28T11:21:07.000Z</time>
      </trkpt>
      <trkpt lat="48.47709" lon="1.3215">
        <ele>269</ele>
        <time>2019-01-28T11:21:14.000Z</time>
      </trkpt>
      <trkpt lat="48.47708" lon="1.32132">
        <ele>267</ele>
        <time>2019-01-28T11:21:25.000Z</time>
      </trkpt>
      <trkpt lat="48.47705" lon="1.32115">
        <ele>266</ele>
        <time>2019-01-28T11:21:36.000Z</time>
      </trkpt>
      <trkpt lat="48.47707" lon="1.32101">
        <ele>266</ele>
        <time>2019-01-28T11:21:44.000Z</time>
      </trkpt>
      <trkpt lat="48.44153" lon="1.46088">
        <ele>206</ele>
        <time>2019-01-28T16:03:50.000Z</time>
      </trkpt>
    </trkseg>
  </trk>
</gpx>